createdAt,value
2019-01-16T00:00:25.659Z,101205.30
2019-01-16T00:03:03.201Z,101218.02
2019-01-16T00:05:54.281Z,101198.73
2019-01-16T00:08:41.148Z,101202.28
2019-01-16T00:11:28.007Z,101209.33
2019-01-16T00:14:17.271Z,101209.38
2019-01-16T00:17:04.242Z,101202.75
2019-01-16T00:19:52.681Z,101198.44
2019-01-16T00:22:46.345Z,101198.80
2019-01-16T00:25:33.629Z,101199.65
2019-01-16T00:28:31.297Z,101196.08
2019-01-16T00:31:11.701Z,101198.27
2019-01-16T00:34:00.053Z,101203.06
2019-01-16T00:36:48.435Z,101198.61
2019-01-16T00:39:45.069Z,101191.27
2019-01-16T00:42:31.467Z,101191.56
2019-01-16T00:45:31.881Z,101189.73
2019-01-16T00:48:09.025Z,101188.41
2019-01-16T00:50:57.423Z,101192.81
2019-01-16T00:53:38.832Z,101202.44
2019-01-16T00:56:36.194Z,101195.32
2019-01-16T00:59:20.389Z,101197.05
2019-01-16T01:01:59.327Z,101204.53
2019-01-16T01:04:50.591Z,101188.67
2019-01-16T01:07:37.077Z,101183.00
2019-01-16T01:10:19.784Z,101200.58
2019-01-16T01:13:05.119Z,101182.50
2019-01-16T01:15:56.402Z,101190.84
2019-01-16T01:18:43.526Z,101190.04
2019-01-16T01:21:31.856Z,101198.80
2019-01-16T01:24:32.489Z,101183.81
2019-01-16T01:27:23.414Z,101191.36
2019-01-16T01:29:59.159Z,101188.20
2019-01-16T01:32:46.031Z,101188.20
2019-01-16T01:35:40.323Z,101180.77
2019-01-16T01:38:37.086Z,101174.66
2019-01-16T01:41:40.347Z,101177.80
2019-01-16T01:44:20.739Z,101175.69
2019-01-16T01:47:14.851Z,101177.88
2019-01-16T01:50:01.852Z,101184.47
2019-01-16T01:52:50.211Z,101185.45
2019-01-16T01:55:35.151Z,101159.10
2019-01-16T01:58:32.787Z,101188.48
2019-01-16T02:01:33.209Z,101177.48
2019-01-16T02:04:27.412Z,101166.59
2019-01-16T02:07:15.789Z,101168.83
2019-01-16T02:09:56.427Z,101160.01
2019-01-16T02:12:51.137Z,101165.23
2019-01-16T02:15:49.649Z,101164.77
2019-01-16T02:18:37.770Z,101163.45
2019-01-16T02:21:24.933Z,101166.95
2019-01-16T02:24:16.365Z,101159.10
2019-01-16T02:27:03.591Z,101165.74
2019-01-16T02:29:54.803Z,101163.96
2019-01-16T02:32:41.965Z,101162.20
2019-01-16T02:35:33.251Z,101159.51
2019-01-16T02:38:21.649Z,101157.73
2019-01-16T02:41:12.835Z,101166.03
2019-01-16T02:44:04.232Z,101166.33
2019-01-16T02:46:41.690Z,101155.68
2019-01-16T02:49:25.942Z,101152.25
2019-01-16T02:52:23.160Z,101152.66
2019-01-16T02:55:14.325Z,101160.04
2019-01-16T02:57:55.161Z,101142.11
2019-01-16T03:00:35.339Z,101142.00
2019-01-16T03:03:26.299Z,101149.95
2019-01-16T03:06:14.665Z,101155.21
2019-01-16T03:09:01.855Z,101146.45
2019-01-16T03:11:53.151Z,101144.23
2019-01-16T03:14:42.238Z,101134.28
2019-01-16T03:17:22.966Z,101115.84
2019-01-16T03:20:10.241Z,101144.30
2019-01-16T03:22:57.022Z,101129.41
2019-01-16T03:25:54.434Z,101117.95
2019-01-16T03:28:41.382Z,101109.15
2019-01-16T03:31:29.721Z,101099.06
2019-01-16T03:34:25.055Z,101110.47
2019-01-16T03:37:25.238Z,101107.83
2019-01-16T03:40:22.878Z,101103.22
2019-01-16T03:43:00.545Z,101105.05
2019-01-16T03:45:47.275Z,101105.00
2019-01-16T03:48:38.812Z,101089.12
2019-01-16T03:51:39.477Z,101089.45
2019-01-16T03:54:21.045Z,101096.58
2019-01-16T03:57:04.314Z,101098.66
2019-01-16T03:59:51.367Z,101092.53
2019-01-16T04:02:38.797Z,101087.33
2019-01-16T04:05:45.464Z,101083.31
2019-01-16T04:08:47.355Z,101083.38
2019-01-16T04:11:36.959Z,101084.17
2019-01-16T04:14:32.911Z,101089.00
2019-01-16T04:17:21.291Z,101072.84
2019-01-16T04:20:03.585Z,101068.97
2019-01-16T04:22:42.505Z,101074.77
2019-01-16T04:25:23.609Z,101068.13
2019-01-16T04:28:10.631Z,101060.28
2019-01-16T04:31:08.085Z,101066.73
2019-01-16T04:34:01.120Z,101060.69
2019-01-16T04:36:48.296Z,101054.55
2019-01-16T04:39:27.481Z,101047.45
2019-01-16T04:42:20.248Z,101047.50
2019-01-16T04:45:08.626Z,101038.22
2019-01-16T04:47:59.773Z,101037.44
2019-01-16T04:50:46.763Z,101037.06
2019-01-16T04:53:37.681Z,101022.05
2019-01-16T04:56:26.086Z,101023.88
2019-01-16T04:59:09.747Z,101020.25
2019-01-16T05:02:00.632Z,101020.20
2019-01-16T05:04:47.637Z,101025.45
2019-01-16T05:07:36.067Z,101021.42
2019-01-16T05:10:24.380Z,101019.98
2019-01-16T05:13:11.701Z,101019.64
2019-01-16T05:15:57.407Z,101019.19
2019-01-16T05:18:44.467Z,101014.16
2019-01-16T05:21:27.487Z,101010.22
2019-01-16T05:24:23.593Z,101010.66
2019-01-16T05:27:11.958Z,101008.83
2019-01-16T05:30:09.205Z,101010.91
2019-01-16T05:32:54.253Z,101012.52
2019-01-16T05:35:40.467Z,100998.12
2019-01-16T05:38:27.684Z,100991.94
2019-01-16T05:41:14.583Z,100993.88
2019-01-16T05:44:01.455Z,100987.34
2019-01-16T05:46:58.753Z,101005.38
2019-01-16T05:49:55.880Z,100997.34
2019-01-16T05:52:44.531Z,100989.58
2019-01-16T05:55:39.435Z,100983.88
2019-01-16T05:58:27.839Z,100985.79
2019-01-16T06:01:14.781Z,100982.56
2019-01-16T06:03:52.669Z,100971.62
2019-01-16T06:06:43.775Z,100974.25
2019-01-16T06:09:23.964Z,100968.98
2019-01-16T06:12:21.267Z,100970.83
2019-01-16T06:15:16.251Z,100969.05
2019-01-16T06:18:12.109Z,100966.27
2019-01-16T06:20:54.997Z,100963.11
2019-01-16T06:23:41.991Z,100968.36
2019-01-16T06:26:23.165Z,100970.92
2019-01-16T06:29:20.529Z,100952.09
2019-01-16T06:32:12.017Z,100959.84
2019-01-16T06:35:00.451Z,100960.71
2019-01-16T06:38:01.915Z,100951.85
2019-01-16T06:40:59.102Z,100965.96
2019-01-16T06:43:56.739Z,100958.03
2019-01-16T06:46:47.631Z,100961.53
2019-01-16T06:49:41.835Z,100977.72
2019-01-16T06:52:17.947Z,100964.39
2019-01-16T06:55:05.143Z,100964.03
2019-01-16T06:57:52.191Z,100967.91
2019-01-16T07:00:49.509Z,100964.11
2019-01-16T07:03:36.571Z,100961.86
2019-01-16T07:06:23.827Z,100968.90
2019-01-16T07:09:15.658Z,100963.91
2019-01-16T07:12:03.079Z,100973.28
2019-01-16T07:14:57.509Z,100961.34
2019-01-16T07:17:40.141Z,100968.11
2019-01-16T07:20:23.397Z,100952.91
2019-01-16T07:23:10.463Z,100959.14
2019-01-16T07:25:57.594Z,100956.13
2019-01-16T07:28:45.993Z,100955.72
2019-01-16T07:31:36.293Z,100957.50
2019-01-16T07:34:14.768Z,100958.44
2019-01-16T07:37:18.550Z,100966.41
2019-01-16T07:40:08.033Z,100965.78
2019-01-16T07:42:56.496Z,100969.66
2019-01-16T07:45:56.928Z,100973.14
2019-01-16T07:48:45.319Z,100971.53
2019-01-16T07:51:33.168Z,100968.50
2019-01-16T07:54:39.789Z,100964.41
2019-01-16T07:57:31.456Z,100974.57
2019-01-16T08:00:18.395Z,100970.20
2019-01-16T08:03:12.445Z,100967.41
2019-01-16T08:06:09.570Z,100978.81
2019-01-16T08:08:56.684Z,100977.47
2019-01-16T08:11:40.583Z,100982.28
2019-01-16T08:14:27.673Z,100973.84
2019-01-16T08:17:14.847Z,100972.63
2019-01-16T08:20:01.335Z,100967.79
2019-01-16T08:22:52.603Z,100970.50
2019-01-16T08:25:34.787Z,100966.19
2019-01-16T08:28:27.740Z,100964.77
2019-01-16T08:31:13.174Z,100966.49
2019-01-16T08:34:05.822Z,100967.48
2019-01-16T08:36:53.017Z,100978.98
2019-01-16T08:39:45.095Z,100966.74
2019-01-16T08:42:25.124Z,100949.54
2019-01-16T08:45:12.493Z,100948.30
2019-01-16T08:48:10.243Z,100964.19
2019-01-16T08:51:04.363Z,100960.23
2019-01-16T08:53:58.654Z,100958.89
2019-01-16T08:56:55.505Z,100952.80
2019-01-16T08:59:45.153Z,100957.58
2019-01-16T09:02:32.074Z,100961.07
2019-01-16T09:05:26.717Z,100951.39
2019-01-16T09:08:13.533Z,100941.23
2019-01-16T09:11:16.954Z,100949.47
2019-01-16T09:13:55.063Z,100949.90
2019-01-16T09:16:40.924Z,100942.45
2019-01-16T09:19:31.798Z,100939.76
2019-01-16T09:22:18.708Z,100941.52
2019-01-16T09:25:07.272Z,100936.67
2019-01-16T09:27:49.201Z,100937.96
2019-01-16T09:30:40.389Z,100938.29
2019-01-16T09:33:27.328Z,100933.07
2019-01-16T09:36:14.857Z,100940.59
2019-01-16T09:39:02.034Z,100931.83
2019-01-16T09:41:48.883Z,100929.22
2019-01-16T09:44:49.337Z,100921.77
2019-01-16T09:47:36.295Z,100914.86
2019-01-16T09:50:37.301Z,100914.88
2019-01-16T09:53:37.802Z,100919.67
2019-01-16T09:56:24.677Z,100916.78
2019-01-16T09:59:31.421Z,100918.12
2019-01-16T10:02:08.239Z,100929.58
2019-01-16T10:04:56.831Z,100904.54
2019-01-16T10:07:46.759Z,100914.16
2019-01-16T10:10:34.659Z,100909.25
2019-01-16T10:13:20.916Z,100916.62
2019-01-16T10:16:18.279Z,100909.09
2019-01-16T10:19:10.079Z,100914.06
2019-01-16T10:22:01.103Z,100907.85
2019-01-16T10:24:52.098Z,100900.32
2019-01-16T10:27:46.285Z,100894.91
2019-01-16T10:30:40.193Z,100898.00
2019-01-16T10:33:43.797Z,100888.59
2019-01-16T10:36:30.688Z,100890.07
2019-01-16T10:39:17.239Z,100881.22
2019-01-16T10:41:59.215Z,100866.66
2019-01-16T10:44:46.290Z,100863.86
2019-01-16T10:47:28.820Z,100865.03
2019-01-16T10:50:15.839Z,100850.11
2019-01-16T10:53:10.170Z,100862.02
2019-01-16T10:56:07.573Z,100860.47
2019-01-16T10:58:58.438Z,100851.88
2019-01-16T11:01:50.007Z,100832.37
2019-01-16T11:04:37.087Z,100831.48
2019-01-16T11:07:25.561Z,100828.34
2019-01-16T11:10:19.900Z,100822.59
2019-01-16T11:13:11.341Z,100825.97
2019-01-16T11:16:05.914Z,100823.13
2019-01-16T11:18:53.012Z,100820.88
2019-01-16T11:21:53.339Z,100810.16
2019-01-16T11:24:45.891Z,100815.55
2019-01-16T11:27:34.305Z,100815.92
2019-01-16T11:30:25.668Z,100812.99
2019-01-16T11:33:12.795Z,100807.27
2019-01-16T11:36:00.263Z,100808.06
2019-01-16T11:38:56.805Z,100801.98
2019-01-16T11:41:44.568Z,100802.80
2019-01-16T11:44:23.513Z,100810.16
2019-01-16T11:47:10.756Z,100797.44
2019-01-16T11:50:17.394Z,100794.72
2019-01-16T11:53:05.381Z,100791.65
2019-01-16T11:55:55.611Z,100778.16
2019-01-16T11:58:30.565Z,100785.58
2019-01-16T12:01:17.713Z,100797.55
2019-01-16T12:04:06.071Z,100785.29
2019-01-16T12:06:53.025Z,100783.52
2019-01-16T12:09:34.388Z,100770.80
2019-01-16T12:12:38.057Z,100782.77
2019-01-16T12:15:33.300Z,100759.02
2019-01-16T12:18:33.617Z,100758.31
2019-01-16T12:21:31.072Z,100747.39
2019-01-16T12:24:19.121Z,100753.98
2019-01-16T12:27:06.059Z,100751.63
2019-01-16T12:30:06.432Z,100745.87
2019-01-16T12:32:48.796Z,100741.55
2019-01-16T12:35:31.328Z,100757.05
2019-01-16T12:38:15.200Z,100744.67
2019-01-16T12:41:01.418Z,100732.67
2019-01-16T12:44:02.001Z,100726.41
2019-01-16T12:46:49.243Z,100726.41
2019-01-16T12:49:43.385Z,100724.52
2019-01-16T12:52:22.917Z,100721.80
2019-01-16T12:55:07.289Z,100715.86
2019-01-16T12:57:54.205Z,100714.34
2019-01-16T13:00:41.541Z,100703.05
2019-01-16T13:03:27.260Z,100700.39
2019-01-16T13:06:14.252Z,100691.27
2019-01-16T13:09:05.551Z,100691.34
2019-01-16T13:11:52.561Z,100690.45
2019-01-16T13:14:52.990Z,100690.91
2019-01-16T13:17:39.938Z,100679.84
2019-01-16T13:20:29.915Z,100696.02
2019-01-16T13:23:15.830Z,100680.64
2019-01-16T13:26:17.127Z,100694.21
2019-01-16T13:29:11.579Z,100688.48
2019-01-16T13:32:04.251Z,100690.18
2019-01-16T13:34:51.213Z,100661.73
2019-01-16T13:37:33.759Z,100663.77
2019-01-16T13:40:11.559Z,100669.55
2019-01-16T13:42:58.971Z,100675.32
2019-01-16T13:45:43.465Z,100669.20
2019-01-16T13:48:40.833Z,100662.59
2019-01-16T13:51:46.267Z,100652.55
2019-01-16T13:54:31.428Z,100668.14
2019-01-16T13:57:18.381Z,100645.02
2019-01-16T14:00:09.274Z,100640.30
2019-01-16T14:02:47.809Z,100645.05
2019-01-16T14:05:47.317Z,100665.34
2019-01-16T14:08:41.699Z,100645.02
2019-01-16T14:11:39.311Z,100627.98
2019-01-16T14:14:26.435Z,100628.50
2019-01-16T14:17:22.595Z,100628.27
2019-01-16T14:20:05.367Z,100629.53
2019-01-16T14:22:59.675Z,100618.11
2019-01-16T14:25:48.060Z,100610.61
2019-01-16T14:28:25.509Z,100602.25
2019-01-16T14:31:26.047Z,100620.58
2019-01-16T14:34:12.781Z,100610.98
2019-01-16T14:36:59.903Z,100611.94
2019-01-16T14:39:48.268Z,100619.72
2019-01-16T14:42:36.203Z,100617.86
2019-01-16T14:45:24.511Z,100620.30
2019-01-16T14:48:10.903Z,100623.23
2019-01-16T14:50:53.705Z,100610.53
2019-01-16T14:53:42.858Z,100593.59
2019-01-16T14:56:30.525Z,100597.63
2019-01-16T14:59:21.546Z,100619.72
2019-01-16T15:02:03.006Z,100607.47
2019-01-16T15:04:51.761Z,100605.84
2019-01-16T15:07:35.439Z,100611.05
2019-01-16T15:10:16.031Z,100603.58
2019-01-16T15:13:22.639Z,100601.46
2019-01-16T15:16:06.070Z,100595.39
2019-01-16T15:18:53.365Z,100580.31
2019-01-16T15:21:33.615Z,100584.38
2019-01-16T15:24:24.701Z,100574.68
2019-01-16T15:27:13.089Z,100561.03
2019-01-16T15:30:04.413Z,100573.66
2019-01-16T15:32:58.598Z,100578.90
2019-01-16T15:35:43.155Z,100583.78
2019-01-16T15:38:30.080Z,100578.58
2019-01-16T15:41:14.180Z,100570.66
2019-01-16T15:43:56.526Z,100577.34
2019-01-16T15:46:35.538Z,100556.76
2019-01-16T15:49:33.113Z,100548.02
2019-01-16T15:52:27.138Z,100548.95
2019-01-16T15:55:30.693Z,100546.42
2019-01-16T15:58:17.549Z,100546.97
2019-01-16T16:01:10.253Z,100548.23
2019-01-16T16:03:57.491Z,100561.05
2019-01-16T16:06:45.857Z,100553.27
2019-01-16T16:09:39.504Z,100550.34
2019-01-16T16:12:16.230Z,100554.27
2019-01-16T16:15:22.681Z,100559.57
2019-01-16T16:18:18.000Z,100540.69
2019-01-16T16:21:00.268Z,100551.98
2019-01-16T16:23:48.623Z,100532.16
2019-01-16T16:26:46.280Z,100514.31
2019-01-16T16:29:50.001Z,100510.51
2019-01-16T16:32:41.559Z,100522.34
2019-01-16T16:35:25.767Z,100522.73
2019-01-16T16:38:32.264Z,100519.44
2019-01-16T16:41:10.334Z,100523.36
2019-01-16T16:43:58.681Z,100524.87
2019-01-16T16:47:02.136Z,100533.06
2019-01-16T16:49:49.425Z,100515.09
2019-01-16T16:52:37.805Z,100499.53
2019-01-16T16:55:24.553Z,100509.24
2019-01-16T16:58:11.781Z,100495.64
2019-01-16T17:01:06.219Z,100475.13
2019-01-16T17:03:54.599Z,100490.84
2019-01-16T17:06:41.615Z,100487.03
2019-01-16T17:09:28.540Z,100491.78
2019-01-16T17:12:06.645Z,100477.70
2019-01-16T17:15:04.036Z,100468.84
2019-01-16T17:18:04.396Z,100457.16
2019-01-16T17:21:01.526Z,100451.31
2019-01-16T17:23:48.584Z,100443.34
2019-01-16T17:26:35.761Z,100439.97
2019-01-16T17:29:28.010Z,100440.42
2019-01-16T17:32:14.941Z,100432.63
2019-01-16T17:34:56.252Z,100422.52
2019-01-16T17:37:47.459Z,100403.93
2019-01-16T17:40:38.738Z,100404.09
2019-01-16T17:43:33.092Z,100398.44
2019-01-16T17:46:24.271Z,100405.46
2019-01-16T17:49:15.555Z,100412.91
2019-01-16T17:51:57.743Z,100403.31
2019-01-16T17:54:58.193Z,100406.32
2019-01-16T17:57:49.713Z,100402.24
2019-01-16T18:00:38.126Z,100389.64
2019-01-16T18:03:14.605Z,100401.09
2019-01-16T18:06:01.442Z,100414.70
2019-01-16T18:08:37.318Z,100394.77
2019-01-16T18:11:15.842Z,100376.84
2019-01-16T18:14:02.953Z,100377.85
2019-01-16T18:16:58.643Z,100379.11
2019-01-16T18:19:52.663Z,100374.15
2019-01-16T18:22:35.353Z,100362.50
2019-01-16T18:25:35.563Z,100354.94
2019-01-16T18:28:22.619Z,100364.64
2019-01-16T18:31:08.408Z,100367.38
2019-01-16T18:33:55.904Z,100354.30
2019-01-16T18:36:44.313Z,100357.41
2019-01-16T18:39:31.504Z,100360.33
2019-01-16T18:42:27.509Z,100364.56
2019-01-16T18:45:14.239Z,100360.86
2019-01-16T18:48:05.538Z,100354.22
2019-01-16T18:50:52.495Z,100349.84
2019-01-16T18:53:43.436Z,100346.06
2019-01-16T18:56:43.811Z,100351.61
2019-01-16T18:59:25.204Z,100354.32
2019-01-16T19:02:25.797Z,100356.48
2019-01-16T19:05:17.022Z,100354.88
2019-01-16T19:08:04.374Z,100357.05
2019-01-16T19:10:52.789Z,100368.41
2019-01-16T19:13:36.964Z,100358.73
2019-01-16T19:16:16.890Z,100353.86
2019-01-16T19:19:03.903Z,100353.86
2019-01-16T19:21:40.619Z,100343.46
2019-01-16T19:24:23.882Z,100336.56
2019-01-16T19:27:05.641Z,100329.61
2019-01-16T19:29:48.350Z,100327.41
2019-01-16T19:32:31.785Z,100332.72
2019-01-16T19:35:20.198Z,100327.87
2019-01-16T19:38:11.298Z,100323.48
2019-01-16T19:40:58.389Z,100331.81
2019-01-16T19:43:46.767Z,100318.66
2019-01-16T19:46:44.372Z,100320.38
2019-01-16T19:49:31.565Z,100312.87
2019-01-16T19:52:18.438Z,100315.95
2019-01-16T19:55:08.418Z,100312.41
2019-01-16T19:57:50.579Z,100308.08
2019-01-16T20:00:44.537Z,100307.59
2019-01-16T20:03:32.181Z,100304.03
2019-01-16T20:06:19.223Z,100301.05
2019-01-16T20:09:04.603Z,100309.76
2019-01-16T20:11:51.843Z,100301.05
2019-01-16T20:14:40.261Z,100291.47
2019-01-16T20:17:23.381Z,100305.05
2019-01-16T20:20:06.200Z,100293.55
2019-01-16T20:23:00.185Z,100284.84
2019-01-16T20:25:47.133Z,100283.53
2019-01-16T20:28:43.339Z,100276.48
2019-01-16T20:31:30.140Z,100264.27
2019-01-16T20:34:17.333Z,100258.48
2019-01-16T20:37:01.562Z,100249.39
2019-01-16T20:39:49.898Z,100250.22
2019-01-16T20:42:50.579Z,100233.16
2019-01-16T20:45:38.974Z,100232.61
2019-01-16T20:48:42.855Z,100238.02
2019-01-16T20:51:36.090Z,100220.94
2019-01-16T20:54:26.378Z,100210.01
2019-01-16T20:57:21.718Z,100206.24
2019-01-16T21:00:08.488Z,100223.31
2019-01-16T21:03:11.807Z,100205.76
2019-01-16T21:05:55.633Z,100198.25
2019-01-16T21:08:56.272Z,100185.98
2019-01-16T21:11:46.334Z,100192.06
2019-01-16T21:14:46.797Z,100188.49
2019-01-16T21:17:42.686Z,100173.90
2019-01-16T21:20:40.134Z,100162.72
2019-01-16T21:23:39.847Z,100152.80
2019-01-16T21:26:26.735Z,100156.38
2019-01-16T21:29:14.187Z,100129.84
2019-01-16T21:32:05.240Z,100145.96
2019-01-16T21:35:05.933Z,100143.42
2019-01-16T21:37:57.083Z,100146.02
2019-01-16T21:40:54.454Z,100139.94
2019-01-16T21:43:42.857Z,100121.91
2019-01-16T21:46:33.941Z,100117.05
2019-01-16T21:49:15.300Z,100134.97
2019-01-16T21:51:57.378Z,100131.39
2019-01-16T21:54:37.865Z,100123.23
2019-01-16T21:57:26.201Z,100111.48
2019-01-16T22:00:23.328Z,100110.08
2019-01-16T22:03:01.853Z,100101.34
2019-01-16T22:05:53.214Z,100105.28
2019-01-16T22:08:40.232Z,100101.19
2019-01-16T22:11:43.719Z,100112.42
2019-01-16T22:14:35.051Z,100109.30
2019-01-16T22:17:23.421Z,100111.84
2019-01-16T22:20:05.712Z,100101.00
2019-01-16T22:22:52.768Z,100096.34
2019-01-16T22:25:39.507Z,100088.45
2019-01-16T22:28:26.839Z,100081.49
2019-01-16T22:31:15.212Z,100086.16
2019-01-16T22:34:03.583Z,100081.95
2019-01-16T22:36:52.004Z,100080.11
2019-01-16T22:39:38.822Z,100085.14
2019-01-16T22:42:30.166Z,100068.16
2019-01-16T22:45:17.434Z,100061.48
2019-01-16T22:48:09.098Z,100078.08
2019-01-16T22:51:03.464Z,100071.66
2019-01-16T22:53:51.878Z,100058.30
2019-01-16T22:56:51.086Z,100069.27
2019-01-16T22:59:38.162Z,100060.67
2019-01-16T23:02:26.539Z,100063.83
2019-01-16T23:05:13.466Z,100060.67
2019-01-16T23:07:55.605Z,100052.62
2019-01-16T23:10:38.485Z,100053.11
2019-01-16T23:13:38.508Z,100054.63
2019-01-16T23:16:44.909Z,100047.17
2019-01-16T23:19:26.473Z,100044.80
2019-01-16T23:22:24.099Z,100039.38
2019-01-16T23:25:10.799Z,100030.70
2019-01-16T23:28:07.901Z,100032.59
2019-01-16T23:31:08.565Z,100031.77
2019-01-16T23:33:56.389Z,100030.52
2019-01-16T23:36:57.026Z,100025.04
2019-01-16T23:39:41.382Z,100020.73
2019-01-16T23:42:22.479Z,100019.39
2019-01-16T23:45:16.891Z,100004.38
2019-01-16T23:48:20.302Z,100011.09
2019-01-16T23:51:17.654Z,100022.48
2019-01-16T23:54:03.801Z,100018.94
2019-01-16T23:56:58.875Z,100010.09
2019-01-16T23:59:45.779Z,100019.33
